Startpagina
METAR-TAF:

METAR-TAF

Vliegvelden :

Dakar, Senegal

Luchthaven Dakar

breedte: 14-44N, lengte: 017-30W, hoogte: 27 m

Actueel weer

Dit bericht is 24 minuten geleden gemaakt, om 15:00 UTC
Wind 14 kt uit het noorden
Temperatuur 30°C
Vochtigheid 70%
Druk 1010 hPa
Zicht: 8000 m
Verspreide wolken op 1000 ft

METAR: GOOY 221500Z 01014KT 8000 SCT010 30/24 Q1010 NOSIG

Tijdstip: 15:24 (15:24 UTC)

Verwachting

Dit bericht is 3 uur en het 54 minuten geleden gemaakt, om 11:30 UTC
Verwachting geldig van 22 om 12 UTC tot 23 om 18 UTC
Wind 8 kt uit het noorden
Zicht: 8000 m

TAF: GOOY 221130Z 2212/2318 35008KT 8000 NSC

Waarnemingen en weersverwachtingen van meer dan 4000 vliegvelden (METAR en TAF).

De beschikbare stations zijn de gele en rode punten op de kaart.

Ga met uw muis naar het station om de naam te zien.

Klik dan om waarnemingen en weersverwachtingen te zien.

kaart wijzigen: klik op de groene knoppen met een zwart kruis om in te zoomen, op de groene knop met een streepje om uit te zoomen of op de groene pijlen voor aangrenzende kaarten.


METAR-TAF: